Oasis of the Seas — C6XS7 — position and weather

sailwx.info

Track history (hours):
 
Tides and Currents Weather Stations Pressure Air Temp Water Temp Dewpoint Dewpoint Depression Visibility Wind Speed Wind Dir Waves Ship Positions

Oasis of the Seas

Last reported at 2019-Sep-20 19:03 UTC. Time now 2019-Sep-21 00:36 UTC.
Position N 40°35' E 013°55'.

Length 360 m; draft 9.3 m.

Type: Passenger vessel. MMSI: 311020600.

Date/timePositionNaut miles runAvg speedWind from/ knotsBaromVisibWave heightAir tempDewpointWater temp
2019-Sep-20 19:03N 40°35' E 013°55'117.4
2019-Sep-20 19:00N 40°36' E 013°56'917.2
2019-Sep-20 18:30N 40°40' E 014°06'917.3
2019-Sep-20 18:00N 40°46' E 014°14'5 9.5
2019-Sep-20 17:30N 40°50' E 014°16'0 0.0
2019-Sep-20 17:00N 40°50' E 014°16'0 0.0
2019-Sep-20 16:27N 40°50' E 014°16'0 0.0
2019-Sep-20 15:45N 40°50' E 014°16'0 0.0
2019-Sep-20 15:15N 40°50' E 014°16'0 0.0
2019-Sep-20 14:57N 40°50' E 014°16'0 0.0
2019-Sep-20 14:15N 40°50' E 014°16'0 0.0
2019-Sep-20 13:45N 40°50' E 014°16'0 0.0
2019-Sep-20 13:21N 40°50' E 014°16'0 0.0
2019-Sep-20 12:51N 40°50' E 014°16'0 0.0
2019-Sep-20 12:21N 40°50' E 014°16'0 0.0
2019-Sep-20 11:21N 40°50' E 014°16'0 0.0
2019-Sep-20 10:51N 40°50' E 014°16'0 0.0
2019-Sep-20 10:21N 40°50' E 014°16'0 0.0
2019-Sep-20 09:51N 40°50' E 014°16'0 0.0
2019-Sep-20 09:21N 40°50' E 014°16'0 0.0
2019-Sep-20 08:51N 40°50' E 014°16'0 0.0
2019-Sep-20 08:21N 40°50' E 014°16'0 0.0
2019-Sep-20 07:51N 40°50' E 014°16'0 0.0
2019-Sep-20 07:27N 40°50' E 014°16'0 0.0
2019-Sep-20 06:51N 40°50' E 014°16'0 0.0
2019-Sep-20 06:27N 40°50' E 014°16'0 0.0
2019-Sep-20 05:39N 40°50' E 014°16'0 0.0
2019-Sep-20 05:27N 40°50' E 014°16'0 0.0
2019-Sep-20 04:45N 40°50' E 014°16'0 0.0
2019-Sep-20 04:27N 40°50' E 014°16'0 0.5
2019-Sep-20 04:00N 40°50' E 014°16'510.6
2019-Sep-20 03:30N 40°45' E 014°14'1019.6
2019-Sep-20 03:00N 40°39' E 014°03'918.1
2019-Sep-20 02:30N 40°39' E 013°51'917.6
2019-Sep-20 02:00N 40°39' E 013°40'214 8.0
2019-Sep-18 23:18N 42°47' E 009°50'3118.6
2019-Sep-18 21:37N 43°15' E 009°31'218.5
2019-Sep-18 21:30N 43°17' E 009°30'2017.7
2019-Sep-18 20:23N 43°37' E 009°37'1118.3
2019-Sep-18 19:47N 43°47' E 009°44'518.2
2019-Sep-18 19:30N 43°51' E 009°47'917.9
2019-Sep-18 19:00N 43°59' E 009°52'612.4
2019-Sep-18 18:30N 44°05' E 009°51'1 2.2
2019-Sep-18 17:58N 44°07' E 009°50'0 0.0
2019-Sep-18 17:28N 44°07' E 009°50'0 0.0
2019-Sep-18 16:58N 44°07' E 009°50'0 0.0
2019-Sep-18 16:28N 44°07' E 009°50'0 0.0
2019-Sep-18 15:58N 44°07' E 009°50'0 0.0
2019-Sep-18 15:28N 44°07' E 009°50'0 0.0
2019-Sep-18 14:55N 44°07' E 009°50'0 0.0
2019-Sep-18 14:28N 44°07' E 009°50'0 0.0
2019-Sep-18 13:58N 44°07' E 009°50'0 0.0
2019-Sep-18 13:28N 44°07' E 009°50'0 0.0
2019-Sep-18 12:58N 44°07' E 009°50'0 0.0
2019-Sep-18 12:28N 44°07' E 009°50'0 0.0
2019-Sep-18 11:58N 44°07' E 009°50'0 0.0
2019-Sep-18 11:28N 44°07' E 009°50'0 0.0
2019-Sep-18 10:58N 44°07' E 009°50'0 0.0
2019-Sep-18 10:28N 44°07' E 009°50'0 0.0
2019-Sep-18 09:58N 44°07' E 009°50'0 0.0
2019-Sep-18 09:04N 44°07' E 009°50'0 0.0
2019-Sep-18 08:55N 44°07' E 009°50'0 0.0
2019-Sep-18 08:28N 44°07' E 009°50'0 0.0
2019-Sep-18 07:55N 44°07' E 009°50'0 0.0
2019-Sep-18 07:28N 44°07' E 009°50'0 0.0
2019-Sep-18 06:58N 44°07' E 009°50'0 0.0
2019-Sep-18 06:28N 44°07' E 009°50'1 1.5
2019-Sep-18 06:00N 44°06' E 009°51'612.0
2019-Sep-18 05:30N 44°01' E 009°56'713.8
2019-Sep-18 05:00N 43°54' E 009°54'917.6
2019-Sep-18 04:30N 43°51' E 009°42'917.5
2019-Sep-18 04:00N 43°48' E 009°31'917.7
2019-Sep-18 03:30N 43°44' E 009°20'917.8
2019-Sep-18 03:00N 43°40' E 009°09'917.5
2019-Sep-18 02:30N 43°37' E 008°58'917.5
2019-Sep-18 02:00N 43°33' E 008°47'5294.9
2019-Sep-18 02:00N 43°30' E 008°42'510.0 220 / 51014.7 5.4 26.0 24.0
2019-Sep-18 01:30N 43°30' E 008°35'2717.8
2019-Sep-17 23:59N 43°19' E 008°01'918.2
2019-Sep-17 23:30N 43°15' E 007°50'918.3
2019-Sep-17 23:00N 43°12' E 007°38'918.2
2019-Sep-17 22:30N 43°09' E 007°27'918.2
2019-Sep-17 22:00N 43°05' E 007°15'918.3
2019-Sep-17 21:30N 43°01' E 007°04'3 6.0
2019-Sep-17 21:00N 43°00' E 007°00'3121.4 230 / 51014.710.8 22.017.426.0
2019-Sep-17 19:32N 42°52' E 006°18'58 4.1
2019-Sep-17 05:24N 43°06' E 005°01'4819.8
2019-Sep-17 03:00N 42°24' E 004°30'410.2 220 / 101016.7 24.0
2019-Sep-17 02:35N 42°21' E 004°26'219.3
2019-Sep-17 02:30N 42°20' E 004°25'1418.5
2019-Sep-17 01:44N 42°08' E 004°14'418.8
2019-Sep-17 01:30N 42°05' E 004°11'918.6
2019-Sep-17 01:00N 41°57' E 004°04'918.6
2019-Sep-17 00:30N 41°49' E 003°58'1418.4
2019-Sep-16 23:44N 41°36' E 003°49'418.1
2019-Sep-16 23:30N 41°32' E 003°46'918.2
2019-Sep-16 23:00N 41°24' E 003°40'918.1
2019-Sep-16 22:30N 41°17' E 003°34'918.7
2019-Sep-16 22:00N 41°09' E 003°27'4227.9
2019-Sep-16 22:00N 41°06' E 003°24'511.3 120 / 111017.710.8 23.019.626.0
2019-Sep-16 21:31N 41°01' E 003°20'1018.0
2019-Sep-16 20:58N 40°53' E 003°14'817.9
2019-Sep-16 20:31N 40°46' E 003°08'917.8
2019-Sep-16 19:59N 40°38' E 003°02'1417.4
2019-Sep-16 19:10N 40°25' E 002°52'6315.5
2019-Sep-16 15:07N 39°25' E 002°29'216.7
2019-Sep-16 14:59N 39°26' E 002°32'815.4
2019-Sep-16 14:30N 39°32' E 002°38'1 2.5
2019-Sep-16 13:58N 39°33' E 002°38'0 0.0
2019-Sep-16 13:28N 39°33' E 002°38'0 0.0
2019-Sep-16 12:58N 39°33' E 002°38'0 0.0
2019-Sep-16 12:28N 39°33' E 002°38'0 0.0
2019-Sep-16 11:55N 39°33' E 002°38'0 0.0
2019-Sep-16 11:28N 39°33' E 002°38'0 0.0
2019-Sep-16 10:58N 39°33' E 002°38'0 0.0
2019-Sep-16 10:28N 39°33' E 002°38'0 0.0
2019-Sep-16 10:01N 39°33' E 002°38'0 0.0
2019-Sep-16 09:25N 39°33' E 002°38'0 0.0
2019-Sep-16 08:58N 39°33' E 002°38'0 0.0
2019-Sep-16 08:25N 39°33' E 002°38'0 0.0
2019-Sep-16 07:58N 39°33' E 002°38'0 0.0
2019-Sep-16 07:28N 39°33' E 002°38'0 0.0
2019-Sep-16 06:58N 39°33' E 002°38'0 0.0
2019-Sep-16 06:25N 39°33' E 002°38'0 0.0
2019-Sep-16 05:58N 39°33' E 002°38'0 0.0
2019-Sep-16 05:27N 39°33' E 002°38'1 1.5
2019-Sep-16 05:00N 39°33' E 002°39'4 8.1
2019-Sep-16 04:30N 39°29' E 002°36'611.4
2019-Sep-16 04:00N 39°24' E 002°33'510.9
2019-Sep-16 03:30N 39°21' E 002°27'10910.8
2019-Sep-15 17:25N 41°09' E 002°11'511.3
2019-Sep-15 17:00N 41°14' E 002°10'510.2
2019-Sep-15 16:30N 41°19' E 002°10'3 5.3
2019-Sep-15 16:00N 41°22' E 002°11'0 0.0
2019-Sep-15 15:28N 41°22' E 002°11'0 0.0
2019-Sep-15 14:58N 41°22' E 002°11'0 0.0
2019-Sep-15 14:28N 41°22' E 002°11'0 0.0
2019-Sep-15 13:58N 41°22' E 002°11'0 0.0
2019-Sep-15 13:28N 41°22' E 002°11'0 0.0
2019-Sep-15 12:58N 41°22' E 002°11'0 0.0
2019-Sep-15 12:28N 41°22' E 002°11'0 0.0
2019-Sep-15 11:58N 41°22' E 002°11'0 0.0
2019-Sep-15 11:28N 41°22' E 002°11'0 0.0
2019-Sep-15 10:58N 41°22' E 002°11'0 0.0
2019-Sep-15 10:28N 41°22' E 002°11'0 0.0
2019-Sep-15 09:58N 41°22' E 002°11'0 0.0
2019-Sep-15 09:28N 41°22' E 002°11'0 0.0
2019-Sep-15 08:58N 41°22' E 002°11'0 0.0
2019-Sep-15 08:28N 41°22' E 002°11'0 0.0
2019-Sep-15 07:58N 41°22' E 002°11'0 0.0
2019-Sep-15 07:28N 41°22' E 002°11'0 0.0
2019-Sep-15 06:58N 41°22' E 002°11'0 0.0
2019-Sep-15 06:28N 41°22' E 002°11'0 0.0
2019-Sep-15 05:58N 41°22' E 002°11'0 0.0
2019-Sep-15 05:28N 41°22' E 002°11'0 0.0
2019-Sep-15 04:58N 41°22' E 002°11'0 0.0
2019-Sep-15 04:28N 41°22' E 002°11'0 0.0
2019-Sep-15 03:58N 41°22' E 002°11'0 0.0
2019-Sep-15 03:28N 41°22' E 002°11'0 0.0
2019-Sep-15 02:58N 41°22' E 002°11'2 3.9
2019-Sep-15 02:31N 41°20' E 002°10'611.3
2019-Sep-15 02:00N 41°15' E 002°14'714.4
2019-Sep-15 01:30N 41°12' E 002°22'714.2
2019-Sep-15 01:00N 41°13' E 002°32'914.2
2019-Sep-15 00:20N 41°13' E 002°44'1014.1
2019-Sep-14 23:39N 41°14' E 002°57'3415.0
2019-Sep-14 21:25N 41°15' E 003°42'16816.7
2019-Sep-14 11:23N 41°16' E 007°25'2018.1
2019-Sep-14 10:17N 41°16' E 007°52'518.1
2019-Sep-14 10:00N 41°16' E 007°58'918.2
2019-Sep-14 09:31N 41°17' E 008°10'918.1
2019-Sep-14 09:00N 41°17' E 008°22'918.0
2019-Sep-14 08:30N 41°17' E 008°34'918.2
2019-Sep-14 08:00N 41°17' E 008°47'918.5
2019-Sep-14 07:30N 41°18' E 008°59'16217.0
2019-Sep-13 22:00N 40°48' E 012°30'4321.5 010 / 191025.810.8 25.017.828.0
2019-Sep-13 19:59N 40°39' E 013°26'2117.5
2019-Sep-13 18:48N 40°35' E 013°52'516.8
2019-Sep-13 18:30N 40°35' E 013°59'816.7
2019-Sep-13 18:00N 40°40' E 014°07'714.7
2019-Sep-13 17:30N 40°46' E 014°14'5 9.8
2019-Sep-13 17:00N 40°50' E 014°16'0 0.2
2019-Sep-13 16:28N 40°50' E 014°16'0 0.0
2019-Sep-13 15:58N 40°50' E 014°16'0 0.0
2019-Sep-13 15:28N 40°50' E 014°16'0 0.0
2019-Sep-13 14:58N 40°50' E 014°16'0 0.0
2019-Sep-13 14:25N 40°50' E 014°16'0 0.0
2019-Sep-13 13:58N 40°50' E 014°16'0 0.0
2019-Sep-13 13:28N 40°50' E 014°16'0 0.0
2019-Sep-13 12:58N 40°50' E 014°16'0 0.0
2019-Sep-13 12:28N 40°50' E 014°16'0 0.0
2019-Sep-13 11:58N 40°50' E 014°16'0 0.0
2019-Sep-13 11:25N 40°50' E 014°16'0 0.0
2019-Sep-13 10:58N 40°50' E 014°16'0 0.0
2019-Sep-13 10:28N 40°50' E 014°16'0 0.0
2019-Sep-13 09:58N 40°50' E 014°16'0 0.0
2019-Sep-13 09:28N 40°50' E 014°16'0 0.0
2019-Sep-13 08:58N 40°50' E 014°16'0 0.0
2019-Sep-13 08:28N 40°50' E 014°16'0 0.0
2019-Sep-13 07:58N 40°50' E 014°16'0 0.0
2019-Sep-13 07:25N 40°50' E 014°16'0 0.0
2019-Sep-13 06:58N 40°50' E 014°16'0 0.0
2019-Sep-13 06:28N 40°50' E 014°16'0 0.0
2019-Sep-13 05:55N 40°50' E 014°16'0 0.0
2019-Sep-13 05:28N 40°50' E 014°16'0 0.0
2019-Sep-13 04:58N 40°50' E 014°16'0 0.0
2019-Sep-13 04:28N 40°50' E 014°16'0 0.8
2019-Sep-13 04:01N 40°50' E 014°16'510.3
2019-Sep-13 03:31N 40°45' E 014°14'918.1
2019-Sep-13 03:01N 40°39' E 014°05'1817.5
2019-Sep-13 02:01N 40°38' E 013°42'1117.9
2019-Sep-13 01:24N 40°41' E 013°28'161 6.6
2019-Sep-12 01:00N 42°18' E 010°36'11387.8 010 / 121022.810.8 23.021.5
2019-Sep-12 00:58N 42°28' E 010°29'920.5
2019-Sep-12 00:31N 42°33' E 010°19'1120.5
2019-Sep-11 23:59N 42°40' E 010°07'1120.9
2019-Sep-11 23:27N 42°46' E 009°54'920.5
2019-Sep-11 23:00N 42°51' E 009°44'1019.9
2019-Sep-11 22:30N 42°59' E 009°36'1020.1
2019-Sep-11 22:00N 43°09' E 009°33'1020.0
2019-Sep-11 21:30N 43°18' E 009°32'1020.5
2019-Sep-11 21:00N 43°29' E 009°34'1020.4
2019-Sep-11 20:31N 43°38' E 009°39'1020.5
2019-Sep-11 20:01N 43°47' E 009°45'1019.7
2019-Sep-11 19:31N 43°56' E 009°51'714.1
2019-Sep-11 19:01N 44°03' E 009°52'3 6.9
2019-Sep-11 18:31N 44°06' E 009°50'0 0.2
2019-Sep-11 18:00N 44°07' E 009°50'0 0.0
2019-Sep-11 17:30N 44°07' E 009°50'0 0.0
2019-Sep-11 16:57N 44°07' E 009°50'0 0.0
2019-Sep-11 16:30N 44°07' E 009°50'0 0.0
2019-Sep-11 15:57N 44°07' E 009°50'0 0.0
2019-Sep-11 15:30N 44°07' E 009°50'0 0.0
2019-Sep-11 14:57N 44°07' E 009°50'0 0.0
2019-Sep-11 14:30N 44°07' E 009°50'0 0.0
2019-Sep-11 14:00N 44°07' E 009°50'0 0.0
2019-Sep-11 13:30N 44°07' E 009°50'0 0.0
2019-Sep-11 12:57N 44°07' E 009°50'0 0.0
2019-Sep-11 12:30N 44°07' E 009°50'0 0.0
2019-Sep-11 12:00N 44°07' E 009°50'0 0.0
2019-Sep-11 11:30N 44°07' E 009°50'0 0.0
2019-Sep-11 11:00N 44°07' E 009°50'0 0.0
2019-Sep-11 10:30N 44°07' E 009°50'0 0.0
2019-Sep-11 09:57N 44°07' E 009°50'0 0.0
2019-Sep-11 09:27N 44°07' E 009°50'0 0.0
2019-Sep-11 09:00N 44°07' E 009°50'0 0.0
2019-Sep-11 08:30N 44°07' E 009°50'0 0.0
2019-Sep-11 08:00N 44°07' E 009°50'0 0.0
2019-Sep-11 07:27N 44°07' E 009°50'0 0.0
2019-Sep-11 07:00N 44°07' E 009°50'0 0.0
2019-Sep-11 06:30N 44°07' E 009°50'1 1.5
2019-Sep-11 06:00N 44°06' E 009°51'612.0
2019-Sep-11 05:30N 44°01' E 009°56'713.9
2019-Sep-11 05:00N 43°54' E 009°53'917.9
2019-Sep-11 04:30N 43°51' E 009°42'918.0
2019-Sep-11 04:00N 43°47' E 009°31'918.1
2019-Sep-11 03:30N 43°43' E 009°19'1019.6
2019-Sep-11 03:00N 43°39' E 009°07'1020.1
2019-Sep-11 02:30N 43°35' E 008°54'1020.4
2019-Sep-11 02:00N 43°31' E 008°41'1020.0
2019-Sep-11 01:30N 43°27' E 008°29'1119.3
2019-Sep-11 00:56N 43°22' E 008°15'819.0
2019-Sep-11 00:30N 43°19' E 008°05'1019.4
2019-Sep-11 00:00N 43°15' E 007°53'1019.5
2019-Sep-10 23:30N 43°11' E 007°40'1019.7
2019-Sep-10 23:00N 43°08' E 007°28'1020.0
2019-Sep-10 22:30N 43°04' E 007°15'1020.0
2019-Sep-10 21:59N 42°60' E 007°02'  
Track history (hours):
 
Tides and Currents Weather Stations Pressure Air Temp Water Temp Dewpoint Dewpoint Depression Visibility Wind Speed Wind Dir Waves Ship Positions

Oasis of the Seas

Last reported at 2019-Sep-20 19:03 UTC. Time now 2019-Sep-21 00:36 UTC.
Position N 40°35' E 013°55'.

Length 360 m; draft 9.3 m.

Type: Passenger vessel. MMSI: 311020600.

Date/timePositionNaut miles runAvg speedWind from/ knotsBaromVisibWave heightAir tempDewpointWater temp
2019-Sep-20 19:03N 40°35' E 013°55'117.4
2019-Sep-20 19:00N 40°36' E 013°56'917.2
2019-Sep-20 18:30N 40°40' E 014°06'917.3
2019-Sep-20 18:00N 40°46' E 014°14'5 9.5
2019-Sep-20 17:30N 40°50' E 014°16'0 0.0
2019-Sep-20 17:00N 40°50' E 014°16'0 0.0
2019-Sep-20 16:27N 40°50' E 014°16'0 0.0
2019-Sep-20 15:45N 40°50' E 014°16'0 0.0
2019-Sep-20 15:15N 40°50' E 014°16'0 0.0
2019-Sep-20 14:57N 40°50' E 014°16'0 0.0
2019-Sep-20 14:15N 40°50' E 014°16'0 0.0
2019-Sep-20 13:45N 40°50' E 014°16'0 0.0
2019-Sep-20 13:21N 40°50' E 014°16'0 0.0
2019-Sep-20 12:51N 40°50' E 014°16'0 0.0
2019-Sep-20 12:21N 40°50' E 014°16'0 0.0
2019-Sep-20 11:21N 40°50' E 014°16'0 0.0
2019-Sep-20 10:51N 40°50' E 014°16'0 0.0
2019-Sep-20 10:21N 40°50' E 014°16'0 0.0
2019-Sep-20 09:51N 40°50' E 014°16'0 0.0
2019-Sep-20 09:21N 40°50' E 014°16'0 0.0
2019-Sep-20 08:51N 40°50' E 014°16'0 0.0
2019-Sep-20 08:21N 40°50' E 014°16'0 0.0
2019-Sep-20 07:51N 40°50' E 014°16'0 0.0
2019-Sep-20 07:27N 40°50' E 014°16'0 0.0
2019-Sep-20 06:51N 40°50' E 014°16'0 0.0
2019-Sep-20 06:27N 40°50' E 014°16'0 0.0
2019-Sep-20 05:39N 40°50' E 014°16'0 0.0
2019-Sep-20 05:27N 40°50' E 014°16'0 0.0
2019-Sep-20 04:45N 40°50' E 014°16'0 0.0
2019-Sep-20 04:27N 40°50' E 014°16'0 0.5
2019-Sep-20 04:00N 40°50' E 014°16'510.6
2019-Sep-20 03:30N 40°45' E 014°14'1019.6
2019-Sep-20 03:00N 40°39' E 014°03'918.1
2019-Sep-20 02:30N 40°39' E 013°51'917.6
2019-Sep-20 02:00N 40°39' E 013°40'214 8.0
2019-Sep-18 23:18N 42°47' E 009°50'3118.6
2019-Sep-18 21:37N 43°15' E 009°31'218.5
2019-Sep-18 21:30N 43°17' E 009°30'2017.7
2019-Sep-18 20:23N 43°37' E 009°37'1118.3
2019-Sep-18 19:47N 43°47' E 009°44'518.2
2019-Sep-18 19:30N 43°51' E 009°47'917.9
2019-Sep-18 19:00N 43°59' E 009°52'612.4
2019-Sep-18 18:30N 44°05' E 009°51'1 2.2
2019-Sep-18 17:58N 44°07' E 009°50'0 0.0
2019-Sep-18 17:28N 44°07' E 009°50'0 0.0
2019-Sep-18 16:58N 44°07' E 009°50'0 0.0
2019-Sep-18 16:28N 44°07' E 009°50'0 0.0
2019-Sep-18 15:58N 44°07' E 009°50'0 0.0
2019-Sep-18 15:28N 44°07' E 009°50'0 0.0
2019-Sep-18 14:55N 44°07' E 009°50'0 0.0
2019-Sep-18 14:28N 44°07' E 009°50'0 0.0
2019-Sep-18 13:58N 44°07' E 009°50'0 0.0
2019-Sep-18 13:28N 44°07' E 009°50'0 0.0
2019-Sep-18 12:58N 44°07' E 009°50'0 0.0
2019-Sep-18 12:28N 44°07' E 009°50'0 0.0
2019-Sep-18 11:58N 44°07' E 009°50'0 0.0
2019-Sep-18 11:28N 44°07' E 009°50'0 0.0
2019-Sep-18 10:58N 44°07' E 009°50'0 0.0
2019-Sep-18 10:28N 44°07' E 009°50'0 0.0
2019-Sep-18 09:58N 44°07' E 009°50'0 0.0
2019-Sep-18 09:04N 44°07' E 009°50'0 0.0
2019-Sep-18 08:55N 44°07' E 009°50'0 0.0
2019-Sep-18 08:28N 44°07' E 009°50'0 0.0
2019-Sep-18 07:55N 44°07' E 009°50'0 0.0
2019-Sep-18 07:28N 44°07' E 009°50'0 0.0
2019-Sep-18 06:58N 44°07' E 009°50'0 0.0
2019-Sep-18 06:28N 44°07' E 009°50'1 1.5
2019-Sep-18 06:00N 44°06' E 009°51'612.0
2019-Sep-18 05:30N 44°01' E 009°56'713.8
2019-Sep-18 05:00N 43°54' E 009°54'917.6
2019-Sep-18 04:30N 43°51' E 009°42'917.5
2019-Sep-18 04:00N 43°48' E 009°31'917.7
2019-Sep-18 03:30N 43°44' E 009°20'917.8
2019-Sep-18 03:00N 43°40' E 009°09'917.5
2019-Sep-18 02:30N 43°37' E 008°58'917.5
2019-Sep-18 02:00N 43°33' E 008°47'5294.9
2019-Sep-18 02:00N 43°30' E 008°42'510.0 220 / 51014.7 5.4 26.0 24.0
2019-Sep-18 01:30N 43°30' E 008°35'2717.8
2019-Sep-17 23:59N 43°19' E 008°01'918.2
2019-Sep-17 23:30N 43°15' E 007°50'918.3
2019-Sep-17 23:00N 43°12' E 007°38'918.2
2019-Sep-17 22:30N 43°09' E 007°27'918.2
2019-Sep-17 22:00N 43°05' E 007°15'918.3
2019-Sep-17 21:30N 43°01' E 007°04'3 6.0
2019-Sep-17 21:00N 43°00' E 007°00'3121.4 230 / 51014.710.8 22.017.426.0
2019-Sep-17 19:32N 42°52' E 006°18'58 4.1
2019-Sep-17 05:24N 43°06' E 005°01'4819.8
2019-Sep-17 03:00N 42°24' E 004°30'410.2 220 / 101016.7 24.0
2019-Sep-17 02:35N 42°21' E 004°26'219.3
2019-Sep-17 02:30N 42°20' E 004°25'1418.5
2019-Sep-17 01:44N 42°08' E 004°14'418.8
2019-Sep-17 01:30N 42°05' E 004°11'918.6
2019-Sep-17 01:00N 41°57' E 004°04'918.6
2019-Sep-17 00:30N 41°49' E 003°58'1418.4
2019-Sep-16 23:44N 41°36' E 003°49'418.1
2019-Sep-16 23:30N 41°32' E 003°46'918.2
2019-Sep-16 23:00N 41°24' E 003°40'918.1
2019-Sep-16 22:30N 41°17' E 003°34'918.7
2019-Sep-16 22:00N 41°09' E 003°27'4227.9
2019-Sep-16 22:00N 41°06' E 003°24'511.3 120 / 111017.710.8 23.019.626.0
2019-Sep-16 21:31N 41°01' E 003°20'1018.0
2019-Sep-16 20:58N 40°53' E 003°14'817.9
2019-Sep-16 20:31N 40°46' E 003°08'917.8
2019-Sep-16 19:59N 40°38' E 003°02'1417.4
2019-Sep-16 19:10N 40°25' E 002°52'6315.5
2019-Sep-16 15:07N 39°25' E 002°29'216.7
2019-Sep-16 14:59N 39°26' E 002°32'815.4
2019-Sep-16 14:30N 39°32' E 002°38'1 2.5
2019-Sep-16 13:58N 39°33' E 002°38'0 0.0
2019-Sep-16 13:28N 39°33' E 002°38'0 0.0
2019-Sep-16 12:58N 39°33' E 002°38'0 0.0
2019-Sep-16 12:28N 39°33' E 002°38'0 0.0
2019-Sep-16 11:55N 39°33' E 002°38'0 0.0
2019-Sep-16 11:28N 39°33' E 002°38'0 0.0
2019-Sep-16 10:58N 39°33' E 002°38'0 0.0
2019-Sep-16 10:28N 39°33' E 002°38'0 0.0
2019-Sep-16 10:01N 39°33' E 002°38'0 0.0
2019-Sep-16 09:25N 39°33' E 002°38'0 0.0
2019-Sep-16 08:58N 39°33' E 002°38'0 0.0
2019-Sep-16 08:25N 39°33' E 002°38'0 0.0
2019-Sep-16 07:58N 39°33' E 002°38'0 0.0
2019-Sep-16 07:28N 39°33' E 002°38'0 0.0
2019-Sep-16 06:58N 39°33' E 002°38'0 0.0
2019-Sep-16 06:25N 39°33' E 002°38'0 0.0
2019-Sep-16 05:58N 39°33' E 002°38'0 0.0
2019-Sep-16 05:27N 39°33' E 002°38'1 1.5
2019-Sep-16 05:00N 39°33' E 002°39'4 8.1
2019-Sep-16 04:30N 39°29' E 002°36'611.4
2019-Sep-16 04:00N 39°24' E 002°33'510.9
2019-Sep-16 03:30N 39°21' E 002°27'10910.8
2019-Sep-15 17:25N 41°09' E 002°11'511.3
2019-Sep-15 17:00N 41°14' E 002°10'510.2
2019-Sep-15 16:30N 41°19' E 002°10'3 5.3
2019-Sep-15 16:00N 41°22' E 002°11'0 0.0
2019-Sep-15 15:28N 41°22' E 002°11'0 0.0
2019-Sep-15 14:58N 41°22' E 002°11'0 0.0
2019-Sep-15 14:28N 41°22' E 002°11'0 0.0
2019-Sep-15 13:58N 41°22' E 002°11'0 0.0
2019-Sep-15 13:28N 41°22' E 002°11'0 0.0
2019-Sep-15 12:58N 41°22' E 002°11'0 0.0
2019-Sep-15 12:28N 41°22' E 002°11'0 0.0
2019-Sep-15 11:58N 41°22' E 002°11'0 0.0
2019-Sep-15 11:28N 41°22' E 002°11'0 0.0
2019-Sep-15 10:58N 41°22' E 002°11'0 0.0
2019-Sep-15 10:28N 41°22' E 002°11'0 0.0
2019-Sep-15 09:58N 41°22' E 002°11'0 0.0
2019-Sep-15 09:28N 41°22' E 002°11'0 0.0
2019-Sep-15 08:58N 41°22' E 002°11'0 0.0
2019-Sep-15 08:28N 41°22' E 002°11'0 0.0
2019-Sep-15 07:58N 41°22' E 002°11'0 0.0
2019-Sep-15 07:28N 41°22' E 002°11'0 0.0
2019-Sep-15 06:58N 41°22' E 002°11'0 0.0
2019-Sep-15 06:28N 41°22' E 002°11'0 0.0
2019-Sep-15 05:58N 41°22' E 002°11'0 0.0
2019-Sep-15 05:28N 41°22' E 002°11'0 0.0
2019-Sep-15 04:58N 41°22' E 002°11'0 0.0
2019-Sep-15 04:28N 41°22' E 002°11'0 0.0
2019-Sep-15 03:58N 41°22' E 002°11'0 0.0
2019-Sep-15 03:28N 41°22' E 002°11'0 0.0
2019-Sep-15 02:58N 41°22' E 002°11'2 3.9
2019-Sep-15 02:31N 41°20' E 002°10'611.3
2019-Sep-15 02:00N 41°15' E 002°14'714.4
2019-Sep-15 01:30N 41°12' E 002°22'714.2
2019-Sep-15 01:00N 41°13' E 002°32'914.2
2019-Sep-15 00:20N 41°13' E 002°44'1014.1
2019-Sep-14 23:39N 41°14' E 002°57'3415.0
2019-Sep-14 21:25N 41°15' E 003°42'16816.7
2019-Sep-14 11:23N 41°16' E 007°25'2018.1
2019-Sep-14 10:17N 41°16' E 007°52'518.1
2019-Sep-14 10:00N 41°16' E 007°58'918.2
2019-Sep-14 09:31N 41°17' E 008°10'918.1
2019-Sep-14 09:00N 41°17' E 008°22'918.0
2019-Sep-14 08:30N 41°17' E 008°34'918.2
2019-Sep-14 08:00N 41°17' E 008°47'918.5
2019-Sep-14 07:30N 41°18' E 008°59'16217.0
2019-Sep-13 22:00N 40°48' E 012°30'4321.5 010 / 191025.810.8 25.017.828.0
2019-Sep-13 19:59N 40°39' E 013°26'2117.5
2019-Sep-13 18:48N 40°35' E 013°52'516.8
2019-Sep-13 18:30N 40°35' E 013°59'816.7
2019-Sep-13 18:00N 40°40' E 014°07'714.7
2019-Sep-13 17:30N 40°46' E 014°14'5 9.8
2019-Sep-13 17:00N 40°50' E 014°16'0 0.2
2019-Sep-13 16:28N 40°50' E 014°16'0 0.0
2019-Sep-13 15:58N 40°50' E 014°16'0 0.0
2019-Sep-13 15:28N 40°50' E 014°16'0 0.0
2019-Sep-13 14:58N 40°50' E 014°16'0 0.0
2019-Sep-13 14:25N 40°50' E 014°16'0 0.0
2019-Sep-13 13:58N 40°50' E 014°16'0 0.0
2019-Sep-13 13:28N 40°50' E 014°16'0 0.0
2019-Sep-13 12:58N 40°50' E 014°16'0 0.0
2019-Sep-13 12:28N 40°50' E 014°16'0 0.0
2019-Sep-13 11:58N 40°50' E 014°16'0 0.0
2019-Sep-13 11:25N 40°50' E 014°16'0 0.0
2019-Sep-13 10:58N 40°50' E 014°16'0 0.0
2019-Sep-13 10:28N 40°50' E 014°16'0 0.0
2019-Sep-13 09:58N 40°50' E 014°16'0 0.0
2019-Sep-13 09:28N 40°50' E 014°16'0 0.0
2019-Sep-13 08:58N 40°50' E 014°16'0 0.0
2019-Sep-13 08:28N 40°50' E 014°16'0 0.0
2019-Sep-13 07:58N 40°50' E 014°16'0 0.0
2019-Sep-13 07:25N 40°50' E 014°16'0 0.0
2019-Sep-13 06:58N 40°50' E 014°16'0 0.0
2019-Sep-13 06:28N 40°50' E 014°16'0 0.0
2019-Sep-13 05:55N 40°50' E 014°16'0 0.0
2019-Sep-13 05:28N 40°50' E 014°16'0 0.0
2019-Sep-13 04:58N 40°50' E 014°16'0 0.0
2019-Sep-13 04:28N 40°50' E 014°16'0 0.8
2019-Sep-13 04:01N 40°50' E 014°16'510.3
2019-Sep-13 03:31N 40°45' E 014°14'918.1
2019-Sep-13 03:01N 40°39' E 014°05'1817.5
2019-Sep-13 02:01N 40°38' E 013°42'1117.9
2019-Sep-13 01:24N 40°41' E 013°28'161 6.6
2019-Sep-12 01:00N 42°18' E 010°36'11387.8 010 / 121022.810.8 23.021.5
2019-Sep-12 00:58N 42°28' E 010°29'920.5
2019-Sep-12 00:31N 42°33' E 010°19'1120.5
2019-Sep-11 23:59N 42°40' E 010°07'1120.9
2019-Sep-11 23:27N 42°46' E 009°54'920.5
2019-Sep-11 23:00N 42°51' E 009°44'1019.9
2019-Sep-11 22:30N 42°59' E 009°36'1020.1
2019-Sep-11 22:00N 43°09' E 009°33'1020.0
2019-Sep-11 21:30N 43°18' E 009°32'1020.5
2019-Sep-11 21:00N 43°29' E 009°34'1020.4
2019-Sep-11 20:31N 43°38' E 009°39'1020.5
2019-Sep-11 20:01N 43°47' E 009°45'1019.7
2019-Sep-11 19:31N 43°56' E 009°51'714.1
2019-Sep-11 19:01N 44°03' E 009°52'3 6.9
2019-Sep-11 18:31N 44°06' E 009°50'0 0.2
2019-Sep-11 18:00N 44°07' E 009°50'0 0.0
2019-Sep-11 17:30N 44°07' E 009°50'0 0.0
2019-Sep-11 16:57N 44°07' E 009°50'0 0.0
2019-Sep-11 16:30N 44°07' E 009°50'0 0.0
2019-Sep-11 15:57N 44°07' E 009°50'0 0.0
2019-Sep-11 15:30N 44°07' E 009°50'0 0.0
2019-Sep-11 14:57N 44°07' E 009°50'0 0.0
2019-Sep-11 14:30N 44°07' E 009°50'0 0.0
2019-Sep-11 14:00N 44°07' E 009°50'0 0.0
2019-Sep-11 13:30N 44°07' E 009°50'0 0.0
2019-Sep-11 12:57N 44°07' E 009°50'0 0.0
2019-Sep-11 12:30N 44°07' E 009°50'0 0.0
2019-Sep-11 12:00N 44°07' E 009°50'0 0.0
2019-Sep-11 11:30N 44°07' E 009°50'0 0.0
2019-Sep-11 11:00N 44°07' E 009°50'0 0.0
2019-Sep-11 10:30N 44°07' E 009°50'0 0.0
2019-Sep-11 09:57N 44°07' E 009°50'0 0.0
2019-Sep-11 09:27N 44°07' E 009°50'0 0.0
2019-Sep-11 09:00N 44°07' E 009°50'0 0.0
2019-Sep-11 08:30N 44°07' E 009°50'0 0.0
2019-Sep-11 08:00N 44°07' E 009°50'0 0.0
2019-Sep-11 07:27N 44°07' E 009°50'0 0.0
2019-Sep-11 07:00N 44°07' E 009°50'0 0.0
2019-Sep-11 06:30N 44°07' E 009°50'1 1.5
2019-Sep-11 06:00N 44°06' E 009°51'612.0
2019-Sep-11 05:30N 44°01' E 009°56'713.9
2019-Sep-11 05:00N 43°54' E 009°53'917.9
2019-Sep-11 04:30N 43°51' E 009°42'918.0
2019-Sep-11 04:00N 43°47' E 009°31'918.1
2019-Sep-11 03:30N 43°43' E 009°19'1019.6
2019-Sep-11 03:00N 43°39' E 009°07'1020.1
2019-Sep-11 02:30N 43°35' E 008°54'1020.4
2019-Sep-11 02:00N 43°31' E 008°41'1020.0
2019-Sep-11 01:30N 43°27' E 008°29'1119.3
2019-Sep-11 00:56N 43°22' E 008°15'819.0
2019-Sep-11 00:30N 43°19' E 008°05'1019.4
2019-Sep-11 00:00N 43°15' E 007°53'1019.5
2019-Sep-10 23:30N 43°11' E 007°40'1019.7
2019-Sep-10 23:00N 43°08' E 007°28'1020.0
2019-Sep-10 22:30N 43°04' E 007°15'1020.0
2019-Sep-10 21:59N 42°60' E 007°02'  

Dump ship's entire track history